Time;durP1;ratioP1;P1;durP2;ratioP2;P2;SDS_P1;SDS_P2;PMS_P1;PMS_P2;Temp;Humidity;BMP_temperature;BMP_pressure;BME280_temperature;BME280_humidity;BME280_pressure;Samples;Min_cycle;Max_cycle;Signal;HPM_P1;HPM_P2
2021/03/28 00:02:45;;;;;;;72.60;44.58;;;410.10;1305.60;;;;;;4863823;29;20627;-74
2021/03/28 00:05:22;;;;;;;57.40;35.95;;;409.90;1305.60;;;;;;4928839;29;20167;-74
2021/03/28 00:07:48;;;;;;;55.85;35.20;;;409.90;1331.20;;;;;;4935292;29;20047;-74
2021/03/28 00:10:31;;;;;;;49.58;32.33;;;409.70;1356.80;;;;;;4935138;29;20028;-71
2021/03/28 00:13:14;;;;;;;50.20;30.83;;;384.70;1356.80;;;;;;4935030;29;20032;-71
2021/03/28 00:16:06;;;;;;;57.72;34.05;;;384.90;1331.20;;;;;;4934467;29;20107;-70
2021/03/28 00:18:48;;;;;;;57.53;35.50;;;384.90;1356.80;;;;;;4878506;29;20045;-70
2021/03/28 00:21:17;;;;;;;54.65;36.33;;;384.80;1356.80;;;;;;4878347;29;20388;-70
2021/03/28 00:23:50;;;;;;;53.30;34.05;;;384.90;1356.80;;;;;;4878339;29;20045;-71
2021/03/28 00:26:33;;;;;;;55.55;34.33;;;384.80;1356.80;;;;;;4888454;29;20452;-69
2021/03/28 00:29:25;;;;;;;50.13;31.70;;;384.80;1382.40;;;;;;4915269;29;20190;-71
2021/03/28 00:32:04;;;;;;;54.75;33.83;;;384.90;1356.80;;;;;;4915837;29;20531;-71
2021/03/28 00:34:35;;;;;;;54.40;36.20;;;384.90;1356.80;;;;;;4915486;29;20076;-71
2021/03/28 00:37:08;;;;;;;61.38;35.13;;;384.80;1356.80;;;;;;4915722;29;20036;-71
2021/03/28 00:39:57;;;;;;;60.80;35.97;;;384.70;1382.40;;;;;;4915552;29;20036;-71
2021/03/28 00:42:51;;;;;;;54.75;36.67;;;384.90;1382.40;;;;;;4915492;29;20044;-72
2021/03/28 00:45:22;;;;;;;47.83;31.77;;;384.80;1382.40;;;;;;4891038;29;20142;-72
2021/03/28 00:48:06;;;;;;;53.20;34.92;;;384.90;1382.40;;;;;;4877952;29;20445;-71
2021/03/28 00:50:39;;;;;;;50.55;33.33;;;384.90;1356.80;;;;;;4877874;29;20052;-71
2021/03/28 00:53:08;;;;;;;56.80;32.67;;;384.90;1382.40;;;;;;4877968;29;20049;-72
2021/03/28 00:55:37;;;;;;;52.38;33.05;;;384.70;1382.40;;;;;;4918625;28;20171;-71
2021/03/28 00:58:40;;;;;;;52.03;32.22;;;384.20;1433.60;;;;;;4953297;28;20516;-71
2021/03/28 01:01:15;;;;;;;53.50;33.28;;;384.30;1408.00;;;;;;4953354;28;20501;-71
2021/03/28 01:04:06;;;;;;;52.42;31.63;;;384.00;1459.20;;;;;;4953237;28;20114;-72
2021/03/28 01:06:41;;;;;;;49.72;30.88;;;384.00;1459.20;;;;;;4953392;28;20054;-72
2021/03/28 01:09:18;;;;;;;48.22;30.55;;;384.00;1459.20;;;;;;4953046;28;20055;-70
2021/03/28 01:12:08;;;;;;;41.85;27.58;;;384.00;1433.60;;;;;;4953138;28;20031;-70
2021/03/28 01:14:50;;;;;;;45.53;26.85;;;384.40;1408.00;;;;;;4953229;28;20031;-70
2021/03/28 01:17:57;;;;;;;42.45;27.95;;;384.60;1382.40;;;;;;4952917;28;20750;-71
2021/03/28 01:20:27;;;;;;;34.90;24.88;;;384.50;1382.40;;;;;;4914362;29;20123;-73
2021/03/28 01:23:11;;;;;;;52.83;29.85;;;384.60;1382.40;;;;;;4942907;28;20045;-68
2021/03/28 01:25:48;;;;;;;52.13;32.30;;;384.70;1382.40;;;;;;4952675;28;20039;-74
2021/03/28 01:28:21;;;;;;;65.25;40.55;;;409.60;1382.40;;;;;;4952160;28;20121;-74
2021/03/28 01:30:51;;;;;;;66.28;41.83;;;409.60;1382.40;;;;;;4952572;28;20042;-74
2021/03/28 01:33:29;;;;;;;69.20;43.35;;;409.60;1382.40;;;;;;4952683;28;20026;-74
2021/03/28 01:36:04;;;;;;;73.05;44.65;;;409.70;1382.40;;;;;;4952368;28;20032;-74
2021/03/28 01:38:39;;;;;;;68.47;43.78;;;409.80;1382.40;;;;;;4952437;28;20058;-71
2021/03/28 01:41:23;;;;;;;73.93;47.45;;;409.80;1382.40;;;;;;4952382;28;20063;-74
2021/03/28 01:43:54;;;;;;;83.80;50.45;;;409.70;1382.40;;;;;;4952548;28;20039;-75
2021/03/28 01:46:51;;;;;;;98.28;59.08;;;409.60;1382.40;;;;;;4952443;28;20019;-70
2021/03/28 01:49:31;;;;;;;87.97;55.38;;;409.70;1382.40;;;;;;4952117;28;20438;-73
2021/03/28 01:52:18;;;;;;;103.65;67.68;;;409.60;1408.00;;;;;;4952154;28;20034;-73
2021/03/28 01:55:08;;;;;;;97.88;63.88;;;409.70;1408.00;;;;;;4952440;28;20063;-73
2021/03/28 01:57:46;;;;;;;91.38;59.33;;;409.70;1408.00;;;;;;4972851;28;20058;-71
2021/03/28 02:00:23;;;;;;;89.80;52.78;;;409.70;1433.60;;;;;;4992972;28;20027;-71
2021/03/28 02:03:04;;;;;;;43.92;29.83;;;409.70;1408.00;;;;;;4993110;28;20070;-73
2021/03/28 02:05:29;;;;;;;41.28;26.30;;;409.80;1433.60;;;;;;4992895;28;20475;-73
2021/03/28 02:08:07;;;;;;;44.97;27.63;;;410.00;1433.60;;;;;;4992906;28;20054;-73
2021/03/28 02:10:42;;;;;;;44.55;28.27;;;410.10;1408.00;;;;;;4992715;28;20022;-72
2021/03/28 02:13:22;;;;;;;51.72;34.30;;;410.00;1408.00;;;;;;4993038;28;20076;-70
2021/03/28 02:16:03;;;;;;;55.70;36.45;;;409.90;1408.00;;;;;;4992826;28;20025;-71
2021/03/28 02:18:42;;;;;;;49.92;32.10;;;410.10;1382.40;;;;;;4991421;28;20061;-71
2021/03/28 02:21:46;;;;;;;26.52;16.90;;;410.10;1408.00;;;;;;4979900;28;20025;-70
2021/03/28 02:24:11;;;;;;;16.67;10.93;;;410.10;1433.60;;;;;;4951935;28;20118;-69
2021/03/28 02:26:49;;;;;;;16.88;11.00;;;410.10;1459.20;;;;;;4951940;28;20118;-71
2021/03/28 02:29:41;;;;;;;14.55;10.40;;;410.10;1459.20;;;;;;4951580;28;20059;-71
2021/03/28 02:32:27;;;;;;;14.85;9.85;;;410.10;1459.20;;;;;;4951861;28;20023;-71
2021/03/28 02:35:03;;;;;;;14.45;9.68;;;410.20;1459.20;;;;;;4951866;28;20042;-73
2021/03/28 02:37:40;;;;;;;16.08;10.07;;;410.20;1459.20;;;;;;4951532;28;20145;-73
2021/03/28 02:40:24;;;;;;;19.48;10.50;;;410.20;1459.20;;;;;;4953686;28;20433;-70
2021/03/28 02:43:18;;;;;;;16.20;9.38;;;410.10;1459.20;;;;;;4955596;28;20039;-71
2021/03/28 02:45:48;;;;;;;13.02;8.10;;;410.00;1459.20;;;;;;4955523;28;20038;-69
2021/03/28 02:48:17;;;;;;;11.63;8.02;;;409.80;1433.60;;;;;;4955473;28;20453;-73
2021/03/28 02:51:04;;;;;;;13.70;8.07;;;409.70;1459.20;;;;;;4955494;28;20462;-70
2021/03/28 02:53:51;;;;;;;11.15;8.73;;;409.60;1484.80;;;;;;4955464;28;20039;-74
2021/03/28 02:56:46;;;;;;;12.38;7.43;;;409.60;1484.80;;;;;;4955353;28;20087;-73
2021/03/28 02:59:28;;;;;;;12.85;7.40;;;409.70;1510.40;;;;;;4961733;28;20061;-70
2021/03/28 03:02:08;;;;;;;12.77;7.32;;;409.70;1587.20;;;;;;4992559;28;20106;-71
2021/03/28 03:05:15;;;;;;;9.32;7.43;;;409.70;1587.20;;;;;;4996212;28;20048;-76
2021/03/28 03:08:08;;;;;;;16.25;8.65;;;409.60;1638.40;;;;;;4995786;28;20042;-74
2021/03/28 03:10:51;;;;;;;12.85;7.30;;;409.60;1689.60;;;;;;4995892;28;20033;-75
2021/03/28 03:13:34;;;;;;;10.93;7.38;;;409.60;1689.60;;;;;;4995863;28;20085;-74
2021/03/28 03:16:09;;;;;;;25.88;14.63;;;384.90;1689.60;;;;;;4982848;28;20369;-74
2021/03/28 03:18:50;;;;;;;15.80;11.88;;;384.50;1740.80;;;;;;4995813;28;20452;-71
2021/03/28 03:21:33;;;;;;;12.10;8.60;;;384.60;1766.40;;;;;;4983991;28;20077;-69
2021/03/28 03:24:33;;;;;;;14.27;8.48;;;384.30;1792.00;;;;;;4995722;28;20050;-68
2021/03/28 03:27:20;;;;;;;13.77;8.93;;;384.10;1792.00;;;;;;4995752;28;20569;-69
2021/03/28 03:30:18;;;;;;;14.18;10.02;;;359.30;1868.80;;;;;;4983348;28;20054;-69
2021/03/28 03:33:14;;;;;;;14.90;10.00;;;359.20;1868.80;;;;;;4995212;28;20069;-75
2021/03/28 03:35:47;;;;;;;18.23;11.60;;;359.30;1843.20;;;;;;4995446;28;20126;-75
2021/03/28 03:38:21;;;;;;;15.73;10.73;;;359.10;1868.80;;;;;;4995380;28;20076;-74
2021/03/28 03:41:15;;;;;;;14.43;9.50;;;359.30;1843.20;;;;;;4995472;28;20022;-69
2021/03/28 03:44:05;;;;;;;15.40;9.93;;;384.10;1843.20;;;;;;4982224;28;20054;-74
2021/03/28 03:46:53;;;;;;;16.25;9.95;;;384.00;1817.60;;;;;;4995374;28;20057;-75
2021/03/28 03:49:54;;;;;;;12.02;7.57;;;384.00;1817.60;;;;;;4995389;28;20377;-75
2021/03/28 03:52:57;;;;;;;13.20;7.95;;;358.80;1817.60;;;;;;4981847;28;20469;-75
2021/03/28 03:55:40;;;;;;;12.15;9.10;;;359.10;1740.80;;;;;;4995185;28;20073;-70
2021/03/28 03:58:19;;;;;;;10.25;7.75;;;359.30;1689.60;;;;;;4995320;28;20042;-75
2021/03/28 04:00:53;;;;;;;14.07;7.85;;;384.10;1689.60;;;;;;4982401;28;20022;-70
2021/03/28 04:03:22;;;;;;;12.60;8.93;;;384.10;1664.00;;;;;;4995204;28;20027;-78
2021/03/28 04:06:06;;;;;;;12.38;8.32;;;359.30;1740.80;;;;;;4981597;28;20540;-78
2021/03/28 04:08:41;;;;;;;12.07;8.60;;;359.20;1766.40;;;;;;4994936;28;20033;-71
2021/03/28 04:11:33;;;;;;;20.17;14.00;;;359.30;1766.40;;;;;;4994987;28;20025;-72
2021/03/28 04:14:20;;;;;;;15.65;10.07;;;384.00;1740.80;;;;;;4994707;28;20023;-70
2021/03/28 04:17:12;;;;;;;11.82;7.95;;;384.00;1740.80;;;;;;4994675;28;20026;-72
2021/03/28 04:19:57;;;;;;;11.80;8.27;;;359.30;1715.20;;;;;;4983423;28;20037;-72
2021/03/28 04:22:25;;;;;;;10.35;7.10;;;384.00;1689.60;;;;;;4994595;28;20029;-71
2021/03/28 04:25:23;;;;;;;10.80;7.25;;;359.30;1689.60;;;;;;4994688;28;20026;-71
2021/03/28 04:28:10;;;;;;;8.88;6.47;;;359.20;1715.20;;;;;;4953137;28;20549;-71
2021/03/28 04:30:56;;;;;;;10.60;6.82;;;359.20;1766.40;;;;;;4953652;28;20501;-69
2021/03/28 04:33:42;;;;;;;14.43;8.18;;;359.00;1792.00;;;;;;4953675;28;20143;-73
2021/03/28 04:36:19;;;;;;;12.48;8.70;;;358.70;1868.80;;;;;;4953405;28;20585;-71
2021/03/28 04:39:03;;;;;;;10.88;6.55;;;358.60;1843.20;;;;;;4937419;29;20147;-75
2021/03/28 04:41:47;;;;;;;9.55;6.38;;;358.40;1868.80;;;;;;4953402;28;20028;-74
2021/03/28 04:44:50;;;;;;;9.13;7.28;;;333.60;1920.00;;;;;;4937339;29;20170;-74
2021/03/28 04:47:53;;;;;;;11.68;9.05;;;333.60;1894.40;;;;;;4953378;28;20031;-74
2021/03/28 04:50:52;;;;;;;9.63;7.82;;;333.40;1945.60;;;;;;4953166;28;20084;-74
2021/03/28 04:53:17;;;;;;;10.40;6.60;;;333.50;1894.40;;;;;;4953081;28;20074;-71
2021/03/28 04:56:03;;;;;;;12.57;7.43;;;333.30;1868.80;;;;;;4953282;28;20031;-71
2021/03/28 04:58:38;;;;;;;16.50;10.10;;;333.30;1945.60;;;;;;4952928;28;20280;-74
2021/03/28 05:01:39;;;;;;;18.52;11.27;;;333.40;1920.00;;;;;;4953283;28;20051;-74
2021/03/28 05:04:21;;;;;;;15.17;10.90;;;333.40;1894.40;;;;;;4959558;28;20486;-71
2021/03/28 05:06:59;;;;;;;22.00;15.10;;;333.50;1868.80;;;;;;4988382;28;20663;-74
2021/03/28 05:09:49;;;;;;;17.42;11.85;;;358.40;1843.20;;;;;;4993946;28;20125;-71
2021/03/28 05:12:40;;;;;;;14.52;10.27;;;358.60;1817.60;;;;;;4993760;28;20029;-72
2021/03/28 05:15:47;;;;;;;17.48;12.32;;;358.50;1792.00;;;;;;4993653;28;20030;-75
2021/03/28 05:18:54;;;;;;;17.17;11.52;;;358.50;1766.40;;;;;;4952676;28;20058;-78
2021/03/28 05:22:01;;;;;;;19.05;10.75;;;358.70;1766.40;;;;;;4952733;28;20031;-77
2021/03/28 05:24:29;;;;;;;15.35;10.88;;;358.60;1740.80;;;;;;4952815;28;20078;-72
2021/03/28 05:27:30;;;;;;;19.70;10.30;;;333.60;1766.40;;;;;;4952808;28;20070;-73
2021/03/28 05:30:32;;;;;;;22.33;14.15;;;333.40;1766.40;;;;;;4858089;29;20141;-71
2021/03/28 05:33:12;;;;;;;21.40;14.05;;;333.40;1792.00;;;;;;4858434;29;20029;-76
2021/03/28 05:35:40;;;;;;;20.80;14.25;;;333.40;1766.40;;;;;;4858422;29;20353;-70
2021/03/28 05:38:27;;;;;;;20.30;13.63;;;333.50;1740.80;;;;;;4858170;29;20037;-71
2021/03/28 05:41:11;;;;;;;17.85;13.38;;;333.50;1715.20;;;;;;4858184;29;20129;-70
2021/03/28 05:44:11;;;;;;;17.95;10.68;;;333.60;1689.60;;;;;;4858352;29;20066;-75
2021/03/28 05:46:56;;;;;;;16.20;10.93;;;358.50;1612.80;;;;;;4821444;29;20066;-70
2021/03/28 05:49:51;;;;;;;16.15;11.00;;;358.80;1612.80;;;;;;4821628;29;20038;-71
2021/03/28 05:52:29;;;;;;;23.38;15.50;;;358.90;1587.20;;;;;;4821486;29;20034;-72
2021/03/28 05:55:48;;;;;;;22.33;15.40;;;359.00;1587.20;;;;;;4822026;29;20042;-71
2021/03/28 05:58:23;;;;;;;27.40;16.15;;;359.10;1587.20;;;;;;4839295;29;20830;-71
2021/03/28 06:01:07;;;;;;;46.92;31.63;;;359.20;1536.00;;;;;;4839569;29;20113;-71
2021/03/28 06:04:11;;;;;;;50.60;33.60;;;359.20;1638.40;;;;;;4839349;29;20305;-72
2021/03/28 06:06:40;;;;;;;39.08;27.88;;;359.20;1664.00;;;;;;4912987;29;20035;-72
2021/03/28 06:09:29;;;;;;;37.45;24.38;;;359.30;1638.40;;;;;;4951997;29;20046;-71
2021/03/28 06:12:26;;;;;;;29.92;21.60;;;359.30;1612.80;;;;;;4951976;29;20565;-72
2021/03/28 06:15:26;;;;;;;26.50;19.27;;;384.00;1612.80;;;;;;4951315;29;20027;-72
2021/03/28 06:18:00;;;;;;;27.38;18.98;;;359.30;1561.60;;;;;;4940116;29;20489;-72
2021/03/28 06:20:54;;;;;;;27.63;18.05;;;359.30;1536.00;;;;;;4951112;29;20027;-73
2021/03/28 06:23:46;;;;;;;29.02;18.85;;;384.00;1510.40;;;;;;4970118;28;20089;-70
2021/03/28 06:26:35;;;;;;;52.13;34.72;;;384.00;1484.80;;;;;;4979559;28;20030;-71
2021/03/28 06:29:16;;;;;;;43.85;28.80;;;384.10;1484.80;;;;;;4992538;28;20074;-72
2021/03/28 06:32:03;;;;;;;41.00;28.08;;;384.10;1510.40;;;;;;4992830;28;20474;-70
2021/03/28 06:34:56;;;;;;;43.13;27.15;;;384.20;1484.80;;;;;;4991603;28;20560;-72
2021/03/28 06:37:40;;;;;;;50.95;30.23;;;384.30;1484.80;;;;;;4992290;28;20120;-71
2021/03/28 06:40:46;;;;;;;56.47;32.70;;;384.30;1510.40;;;;;;4992606;28;20026;-75
2021/03/28 06:43:15;;;;;;;42.72;26.83;;;384.40;1510.40;;;;;;4951449;28;20050;-72
2021/03/28 06:45:41;;;;;;;39.67;23.83;;;384.30;1433.60;;;;;;4951875;28;20026;-71
2021/03/28 06:48:09;;;;;;;25.38;16.25;;;384.30;1408.00;;;;;;4951668;28;20036;-75
2021/03/28 06:51:05;;;;;;;37.42;20.35;;;384.30;1356.80;;;;;;4951858;28;20027;-73
2021/03/28 06:53:42;;;;;;;28.70;19.02;;;384.30;1331.20;;;;;;4951649;28;20087;-74
2021/03/28 06:56:17;;;;;;;29.83;21.85;;;384.40;1356.80;;;;;;4962373;28;20066;-73
2021/03/28 06:59:16;;;;;;;28.58;19.20;;;384.50;1382.40;;;;;;4953371;28;20062;-71
2021/03/28 07:01:59;;;;;;;28.70;18.77;;;384.60;1331.20;;;;;;4951514;28;20491;-75
2021/03/28 07:04:46;;;;;;;33.88;21.33;;;384.60;1331.20;;;;;;4951599;28;20146;-71
2021/03/28 07:07:35;;;;;;;27.45;17.67;;;384.60;1254.40;;;;;;4951487;28;20028;-75
2021/03/28 07:10:22;;;;;;;28.00;19.52;;;384.50;1254.40;;;;;;4951726;28;20364;-74
2021/03/28 07:13:18;;;;;;;29.23;22.42;;;384.40;1254.40;;;;;;4951414;28;20446;-75
2021/03/28 07:16:12;;;;;;;24.23;15.90;;;384.40;1254.40;;;;;;4951519;28;20029;-70
2021/03/28 07:19:15;;;;;;;24.20;16.35;;;384.40;1254.40;;;;;;4951533;28;20046;-70
2021/03/28 07:21:43;;;;;;;23.30;15.82;;;384.60;1254.40;;;;;;4983545;28;20029;-75
2021/03/28 07:24:47;;;;;;;23.70;14.88;;;384.60;1228.80;;;;;;4992248;28;20106;-75
2021/03/28 07:27:15;;;;;;;17.13;11.65;;;384.60;1228.80;;;;;;4995315;28;20026;-75
2021/03/28 07:30:14;;;;;;;32.00;21.35;;;384.60;1203.20;;;;;;4995447;28;20081;-76
2021/03/28 07:33:07;;;;;;;33.63;20.35;;;384.30;1203.20;;;;;;4995542;28;20432;-76
2021/03/28 07:35:52;;;;;;;40.58;26.58;;;384.50;1203.20;;;;;;4995516;28;20569;-72
2021/03/28 07:38:35;;;;;;;28.00;18.50;;;384.30;1152.00;;;;;;4983729;28;20401;-75
2021/03/28 07:41:46;;;;;;;21.52;14.80;;;384.50;1177.60;;;;;;4995312;28;20069;-71
2021/03/28 07:44:36;;;;;;;11.48;7.72;;;384.70;1177.60;;;;;;4984911;28;20045;-75
2021/03/28 07:47:26;;;;;;;14.75;10.00;;;384.60;1100.80;;;;;;4995257;28;20022;-76
2021/03/28 07:50:36;;;;;;;19.13;14.57;;;384.70;1126.40;;;;;;4995237;28;20042;-71
2021/03/28 07:53:35;;;;;;;18.95;10.90;;;409.70;1126.40;;;;;;4995188;28;20022;-75
2021/03/28 07:56:35;;;;;;;15.43;9.07;;;409.70;1100.80;;;;;;4984132;28;20031;-75
2021/03/28 07:59:01;;;;;;;9.73;7.63;;;409.60;1100.80;;;;;;5010403;28;20041;-75
2021/03/28 08:02:11;;;;;;;9.10;6.22;;;409.60;1126.40;;;;;;4994996;28;20035;-76
2021/03/28 08:05:07;;;;;;;11.30;6.85;;;409.60;1075.20;;;;;;4953886;28;20046;-76
2021/03/28 08:07:45;;;;;;;6.82;4.40;;;409.80;1100.80;;;;;;4953976;28;20039;-73
2021/03/28 08:10:23;;;;;;;13.15;6.55;;;410.00;1024.00;;;;;;4953967;28;20106;-71
2021/03/28 08:13:16;;;;;;;14.95;8.43;;;410.10;1049.60;;;;;;4954186;28;20094;-75
2021/03/28 08:16:12;;;;;;;22.73;12.80;;;410.20;1024.00;;;;;;4953763;28;20046;-75
2021/03/28 08:19:12;;;;;;;27.48;11.90;;;410.10;1049.60;;;;;;4953817;28;20114;-75
2021/03/28 08:22:17;;;;;;;23.70;12.93;;;410.40;1075.20;;;;;;4953672;28;20071;-75
2021/03/28 08:24:52;;;;;;;31.13;10.15;;;435.40;1049.60;;;;;;4953708;28;20047;-75
2021/03/28 08:27:30;;;;;;;17.67;8.43;;;435.80;1049.60;;;;;;4953481;28;20526;-75
2021/03/28 08:30:20;;;;;;;19.90;7.05;;;436.00;998.40;;;;;;4951062;28;20210;-71
2021/03/28 08:33:14;;;;;;;18.30;9.30;;;436.10;972.80;;;;;;4952749;28;20544;-74
2021/03/28 08:36:02;;;;;;;14.65;8.65;;;436.10;947.20;;;;;;4940208;28;20522;-74
2021/03/28 08:38:28;;;;;;;25.55;12.10;;;435.90;921.60;;;;;;4934159;28;20032;-68
2021/03/28 08:40:56;;;;;;;24.25;9.70;;;460.80;1024.00;;;;;;4953611;28;20065;-70
2021/03/28 08:43:44;;;;;;;21.52;7.93;;;461.00;972.80;;;;;;4979993;28;20124;-70
2021/03/28 08:46:13;;;;;;;20.55;8.88;;;461.10;921.60;;;;;;4993620;28;20022;-69
2021/03/28 08:48:55;;;;;;;28.52;8.65;;;461.10;947.20;;;;;;4993380;28;20026;-69
2021/03/28 08:51:58;;;;;;;16.63;6.00;;;461.60;947.20;;;;;;4993497;28;20045;-76
2021/03/28 08:55:02;;;;;;;21.20;5.40;;;461.40;896.00;;;;;;4984250;28;20088;-75
2021/03/28 08:57:36;;;;;;;16.48;6.28;;;461.30;921.60;;;;;;4981316;28;20042;-70
2021/03/28 09:00:14;;;;;;;24.00;10.23;;;461.10;896.00;;;;;;4992987;28;20065;-74
2021/03/28 09:02:59;;;;;;;20.00;8.35;;;461.10;921.60;;;;;;4993491;28;20027;-71
2021/03/28 09:05:53;;;;;;;30.02;13.55;;;436.10;896.00;;;;;;4993084;28;20021;-74
2021/03/28 09:08:50;;;;;;;16.30;10.27;;;460.90;921.60;;;;;;4992019;28;20026;-68
2021/03/28 09:11:55;;;;;;;35.63;17.25;;;461.00;896.00;;;;;;4992723;28;20018;-70
2021/03/28 09:14:24;;;;;;;33.33;17.38;;;461.10;921.60;;;;;;4952293;28;20087;-68
2021/03/28 09:17:32;;;;;;;30.35;9.88;;;461.10;921.60;;;;;;4952142;28;20047;-74
2021/03/28 09:20:12;;;;;;;18.67;10.00;;;461.00;896.00;;;;;;4952051;28;20039;-68
2021/03/28 09:22:52;;;;;;;29.65;12.73;;;461.10;921.60;;;;;;4952008;28;20478;-69
2021/03/28 09:25:39;;;;;;;34.72;12.90;;;461.10;921.60;;;;;;4952238;28;20050;-68
2021/03/28 09:28:37;;;;;;;24.83;10.85;;;461.10;921.60;;;;;;4951574;28;20031;-67
2021/03/28 09:31:32;;;;;;;19.05;9.13;;;461.20;921.60;;;;;;4951755;28;20041;-67
2021/03/28 09:34:39;;;;;;;19.80;10.20;;;461.10;921.60;;;;;;4857420;29;20040;-68
2021/03/28 09:37:31;;;;;;;32.78;15.10;;;461.30;921.60;;;;;;4857377;29;20213;-66
2021/03/28 09:40:02;;;;;;;14.77;8.18;;;461.50;896.00;;;;;;4857594;29;20021;-67
2021/03/28 09:42:58;;;;;;;26.80;12.80;;;461.30;896.00;;;;;;4857369;29;20033;-68
2021/03/28 09:45:32;;;;;;;16.45;8.98;;;461.00;921.60;;;;;;4857326;29;20029;-70
2021/03/28 09:48:14;;;;;;;31.75;14.40;;;460.90;921.60;;;;;;4857243;29;20138;-67
2021/03/28 09:50:54;;;;;;;21.42;9.00;;;461.00;921.60;;;;;;4862600;29;20052;-69
2021/03/28 09:53:20;;;;;;;24.30;11.68;;;461.10;921.60;;;;;;4890412;29;20399;-67
2021/03/28 09:56:07;;;;;;;23.33;12.75;;;461.20;921.60;;;;;;4894625;29;20036;-71
2021/03/28 09:58:42;;;;;;;46.83;28.13;;;461.00;921.60;;;;;;4893603;29;20068;-69
2021/03/28 10:01:20;;;;;;;18.05;11.57;;;461.40;921.60;;;;;;4894488;29;20032;-72
2021/03/28 10:04:12;;;;;;;25.38;14.00;;;461.70;896.00;;;;;;4894174;29;20036;-70
2021/03/28 10:06:38;;;;;;;18.58;7.93;;;486.50;921.60;;;;;;4894280;29;20060;-68
2021/03/28 10:09:35;;;;;;;21.75;10.95;;;486.60;896.00;;;;;;4890881;29;20049;-75
2021/03/28 10:12:19;;;;;;;8.57;5.80;;;486.60;921.60;;;;;;4987845;28;20026;-76
2021/03/28 10:15:10;;;;;;;22.50;15.45;;;486.50;870.40;;;;;;4992748;28;20034;-70
2021/03/28 10:17:56;;;;;;;20.45;8.68;;;486.60;870.40;;;;;;4991994;28;20499;-76
2021/03/28 10:20:59;;;;;;;16.38;7.82;;;486.70;844.80;;;;;;4992377;28;20026;-69
2021/03/28 10:23:52;;;;;;;21.38;10.75;;;487.00;819.20;;;;;;4951305;28;20125;-74
2021/03/28 10:26:26;;;;;;;21.13;12.13;;;487.00;819.20;;;;;;4951176;28;20054;-68
2021/03/28 10:29:29;;;;;;;17.27;8.68;;;486.80;819.20;;;;;;4950414;28;20047;-72
2021/03/28 10:32:13;;;;;;;19.92;9.35;;;486.80;793.60;;;;;;4951188;28;20035;-68
2021/03/28 10:34:59;;;;;;;20.75;10.32;;;486.80;793.60;;;;;;4950838;28;20091;-69
2021/03/28 10:38:15;;;;;;;27.92;12.73;;;486.60;768.00;;;;;;4936080;28;20075;-69
2021/03/28 10:40:40;;;;;;;29.13;14.25;;;486.60;768.00;;;;;;4856785;29;20045;-71
2021/03/28 10:43:53;;;;;;;28.90;11.00;;;486.60;793.60;;;;;;4856470;29;20048;-70
2021/03/28 10:46:56;;;;;;;28.60;12.73;;;486.60;768.00;;;;;;4820167;29;20049;-71
2021/03/28 10:49:48;;;;;;;28.75;14.98;;;486.70;768.00;;;;;;4820231;29;20061;-74
2021/03/28 10:52:49;;;;;;;42.55;18.45;;;486.80;768.00;;;;;;4820316;29;20054;-71
2021/03/28 10:55:50;;;;;;;17.77;10.32;;;487.00;793.60;;;;;;4819801;29;20113;-69
2021/03/28 10:58:37;;;;;;;12.68;8.50;;;512.00;716.80;;;;;;4783575;29;20059;-68
2021/03/28 11:01:30;;;;;;;15.07;6.85;;;512.00;716.80;;;;;;4793974;29;20123;-74
2021/03/28 11:04:14;;;;;;;24.52;17.73;;;487.10;691.20;;;;;;4805426;29;20046;-70
2021/03/28 11:07:05;;;;;;;30.08;13.63;;;486.80;716.80;;;;;;4805427;29;20039;-72
2021/03/28 11:09:58;;;;;;;34.58;14.65;;;487.00;716.80;;;;;;4805139;29;20460;-69
2021/03/28 11:13:07;;;;;;;18.27;9.00;;;487.00;716.80;;;;;;4805009;29;20047;-68
2021/03/28 11:15:57;;;;;;;38.80;15.63;;;487.00;691.20;;;;;;4821181;29;20552;-69
2021/03/28 11:18:56;;;;;;;8.02;5.72;;;487.10;691.20;;;;;;4897514;29;20048;-69
2021/03/28 11:21:49;;;;;;;32.03;14.45;;;487.00;716.80;;;;;;4904416;29;20044;-75
2021/03/28 11:24:38;;;;;;;28.42;18.83;;;487.10;742.40;;;;;;4916305;29;20024;-76
2021/03/28 11:27:28;;;;;;;14.52;7.45;;;487.20;716.80;;;;;;4916423;29;20071;-74
2021/03/28 11:30:03;;;;;;;17.38;11.07;;;487.10;716.80;;;;;;4913419;29;20056;-75
2021/03/28 11:32:55;;;;;;;19.48;8.85;;;487.20;716.80;;;;;;4961494;28;20030;-68
2021/03/28 11:35:21;;;;;;;13.90;6.30;;;487.30;716.80;;;;;;4995336;28;20034;-72
2021/03/28 11:37:54;;;;;;;22.48;14.70;;;487.30;691.20;;;;;;4995404;28;20026;-70
2021/03/28 11:40:20;;;;;;;22.25;9.60;;;512.10;665.60;;;;;;4995289;28;20023;-76
2021/03/28 11:43:12;;;;;;;27.10;15.85;;;512.20;665.60;;;;;;4982964;28;20019;-72
2021/03/28 11:45:38;;;;;;;17.05;8.68;;;512.10;716.80;;;;;;4954195;29;20066;-70
2021/03/28 11:48:22;;;;;;;19.55;10.85;;;512.30;716.80;;;;;;4954020;29;20078;-71
2021/03/28 11:50:49;;;;;;;12.25;6.93;;;512.10;691.20;;;;;;4954242;29;20039;-69
2021/03/28 11:53:23;;;;;;;17.80;8.18;;;512.10;665.60;;;;;;4951981;28;20070;-69
2021/03/28 11:55:56;;;;;;;14.77;4.78;;;512.40;640.00;;;;;;4934781;29;20034;-69
2021/03/28 11:58:27;;;;;;;39.85;19.23;;;512.40;588.80;;;;;;4934261;29;20074;-70
2021/03/28 12:00:57;;;;;;;37.33;22.33;;;512.80;640.00;;;;;;4934583;29;20122;-75
2021/03/28 12:03:25;;;;;;;33.10;15.88;;;537.70;640.00;;;;;;4934422;29;20095;-70
2021/03/28 12:05:59;;;;;;;15.65;8.77;;;537.80;665.60;;;;;;4934643;29;20024;-70
2021/03/28 12:08:34;;;;;;;8.43;5.95;;;563.40;640.00;;;;;;4934291;29;20066;-68
2021/03/28 12:11:38;;;;;;;11.52;6.72;;;563.80;588.80;;;;;;4934630;29;20039;-70
2021/03/28 12:14:12;;;;;;;61.22;24.77;;;563.80;614.40;;;;;;4934135;29;20035;-71
2021/03/28 12:17:08;;;;;;;59.13;35.30;;;563.60;640.00;;;;;;4934214;29;20048;-75
2021/03/28 12:19:55;;;;;;;84.97;43.00;;;563.50;640.00;;;;;;4934506;29;20494;-71
2021/03/28 12:22:26;;;;;;;19.50;11.27;;;563.30;640.00;;;;;;4953982;28;20049;-68
2021/03/28 12:25:27;;;;;;;8.32;4.38;;;538.50;588.80;;;;;;4994400;28;20412;-69
2021/03/28 12:27:56;;;;;;;13.45;7.43;;;538.10;614.40;;;;;;4972454;28;20082;-76
2021/03/28 12:30:31;;;;;;;68.53;35.88;;;538.40;614.40;;;;;;4972390;28;20062;-75
2021/03/28 12:33:16;;;;;;;41.22;19.58;;;538.20;640.00;;;;;;4972133;28;20473;-70
2021/03/28 12:35:47;;;;;;;21.45;13.73;;;538.00;614.40;;;;;;4972328;28;20061;-73
2021/03/28 12:38:25;;;;;;;;;;;537.90;640.00;;;;;;4973074;28;20042;-75
2021/03/28 12:41:30;;;;;;;18.15;9.95;;;537.70;665.60;;;;;;4972414;28;19910;-76
2021/03/28 12:44:08;;;;;;;7.72;4.70;;;512.80;640.00;;;;;;4961202;28;20023;-76
2021/03/28 12:46:58;;;;;;;21.58;10.95;;;487.20;665.60;;;;;;4972019;28;20033;-73
2021/03/28 12:49:31;;;;;;;22.02;15.10;;;512.00;640.00;;;;;;4980371;28;20119;-76
2021/03/28 12:52:11;;;;;;;8.40;6.05;;;512.20;691.20;;;;;;4978168;28;20038;-74
2021/03/28 12:54:49;;;;;;;29.77;21.15;;;512.00;691.20;;;;;;4971604;28;20027;-76
2021/03/28 12:58:06;;;;;;;15.27;10.80;;;512.10;665.60;;;;;;4979730;28;20085;-74
2021/03/28 13:00:34;;;;;;;51.03;34.65;;;487.30;665.60;;;;;;4912946;29;20064;-70
2021/03/28 13:03:12;;;;;;;33.00;21.77;;;487.10;665.60;;;;;;4914412;29;20032;-70
2021/03/28 13:06:00;;;;;;;32.35;21.75;;;487.10;665.60;;;;;;4954175;28;20498;-71
2021/03/28 13:08:26;;;;;;;31.75;20.38;;;487.00;665.60;;;;;;4953104;28;20080;-75
2021/03/28 13:10:59;;;;;;;32.50;21.55;;;487.00;665.60;;;;;;5137736;23;20034;-72
2021/03/28 13:13:26;;;;;;;18.58;11.32;;;486.90;665.60;;;;;;5012056;28;20069;-70
2021/03/28 13:16:00;;;;;;;16.90;10.48;;;487.00;665.60;;;;;;5012833;28;20068;-73
2021/03/28 13:18:27;;;;;;;20.75;11.48;;;487.00;665.60;;;;;;5013467;28;20045;-72
2021/03/28 13:21:22;;;;;;;36.30;26.05;;;486.80;665.60;;;;;;4983669;28;20046;-72
2021/03/28 13:23:47;;;;;;;83.32;54.25;;;486.70;665.60;;;;;;5002785;28;20384;-70
2021/03/28 13:26:13;;;;;;;64.10;41.72;;;486.60;691.20;;;;;;5000827;28;20029;-71
2021/03/28 13:28:52;;;;;;;75.05;51.95;;;486.50;691.20;;;;;;4994171;28;20034;-70
2021/03/28 13:31:33;;;;;;;36.67;25.95;;;486.40;691.20;;;;;;5005289;28;20080;-71
2021/03/28 13:34:22;;;;;;;25.15;16.48;;;486.40;691.20;;;;;;5007282;28;20021;-73